sensor_id;sensor_type;location;lat;lon;timestamp;P1;durP1;ratioP1;P2;durP2;ratioP2
16460;SDS011;8341;42.048;24.650;2023-12-22T00:01:54;6.00;;;2.73;;
16460;SDS011;8341;42.048;24.650;2023-12-22T00:04:19;1.97;;;1.87;;
16460;SDS011;8341;42.048;24.650;2023-12-22T00:06:48;4.93;;;3.43;;
16460;SDS011;8341;42.048;24.650;2023-12-22T00:09:17;5.73;;;3.13;;
16460;SDS011;8341;42.048;24.650;2023-12-22T00:11:44;1.87;;;1.30;;
16460;SDS011;8341;42.048;24.650;2023-12-22T00:14:10;3.80;;;1.30;;
16460;SDS011;8341;42.048;24.650;2023-12-22T00:16:37;1.37;;;1.10;;
16460;SDS011;8341;42.048;24.650;2023-12-22T00:19:04;1.27;;;0.93;;
16460;SDS011;8341;42.048;24.650;2023-12-22T00:21:31;2.77;;;1.63;;
16460;SDS011;8341;42.048;24.650;2023-12-22T00:24:00;1.23;;;1.07;;
16460;SDS011;8341;42.048;24.650;2023-12-22T00:26:27;1.93;;;1.07;;
16460;SDS011;8341;42.048;24.650;2023-12-22T00:28:54;5.50;;;3.33;;
16460;SDS011;8341;42.048;24.650;2023-12-22T00:31:20;4.80;;;3.30;;
16460;SDS011;8341;42.048;24.650;2023-12-22T00:33:47;4.07;;;2.10;;
16460;SDS011;8341;42.048;24.650;2023-12-22T00:36:16;1.73;;;1.27;;
16460;SDS011;8341;42.048;24.650;2023-12-22T00:38:43;1.90;;;1.60;;
16460;SDS011;8341;42.048;24.650;2023-12-22T00:41:11;2.17;;;1.50;;
16460;SDS011;8341;42.048;24.650;2023-12-22T00:43:38;2.00;;;1.10;;
16460;SDS011;8341;42.048;24.650;2023-12-22T00:46:05;1.80;;;1.23;;
16460;SDS011;8341;42.048;24.650;2023-12-22T00:48:32;1.77;;;1.20;;
16460;SDS011;8341;42.048;24.650;2023-12-22T00:50:59;1.93;;;1.40;;
16460;SDS011;8341;42.048;24.650;2023-12-22T00:53:25;2.07;;;1.10;;
16460;SDS011;8341;42.048;24.650;2023-12-22T00:55:52;2.17;;;1.30;;
16460;SDS011;8341;42.048;24.650;2023-12-22T00:58:20;2.80;;;1.70;;
16460;SDS011;8341;42.048;24.650;2023-12-22T01:00:47;1.93;;;1.23;;
16460;SDS011;8341;42.048;24.650;2023-12-22T01:03:14;1.17;;;1.07;;
16460;SDS011;8341;42.048;24.650;2023-12-22T01:05:41;1.77;;;1.40;;
16460;SDS011;8341;42.048;24.650;2023-12-22T01:08:08;1.47;;;1.23;;
16460;SDS011;8341;42.048;24.650;2023-12-22T01:10:35;2.43;;;1.20;;
16460;SDS011;8341;42.048;24.650;2023-12-22T01:13:02;1.50;;;1.10;;
16460;SDS011;8341;42.048;24.650;2023-12-22T01:15:30;2.63;;;1.30;;
16460;SDS011;8341;42.048;24.650;2023-12-22T01:17:57;1.40;;;1.20;;
16460;SDS011;8341;42.048;24.650;2023-12-22T01:20:24;1.30;;;1.20;;
16460;SDS011;8341;42.048;24.650;2023-12-22T01:22:51;1.40;;;1.20;;
16460;SDS011;8341;42.048;24.650;2023-12-22T01:25:17;1.47;;;1.17;;
16460;SDS011;8341;42.048;24.650;2023-12-22T01:27:44;1.83;;;1.17;;
16460;SDS011;8341;42.048;24.650;2023-12-22T01:30:12;1.40;;;1.00;;
16460;SDS011;8341;42.048;24.650;2023-12-22T01:32:41;13.33;;;5.07;;
16460;SDS011;8341;42.048;24.650;2023-12-22T01:35:07;1.70;;;1.20;;
16460;SDS011;8341;42.048;24.650;2023-12-22T01:37:35;1.20;;;1.10;;
16460;SDS011;8341;42.048;24.650;2023-12-22T01:40:02;2.20;;;1.50;;
16460;SDS011;8341;42.048;24.650;2023-12-22T01:42:29;1.92;;;1.25;;
16460;SDS011;8341;42.048;24.650;2023-12-22T01:44:56;4.43;;;1.90;;
16460;SDS011;8341;42.048;24.650;2023-12-22T01:47:23;3.83;;;2.47;;
16460;SDS011;8341;42.048;24.650;2023-12-22T01:49:51;1.47;;;1.13;;
16460;SDS011;8341;42.048;24.650;2023-12-22T01:52:19;1.57;;;1.30;;
16460;SDS011;8341;42.048;24.650;2023-12-22T01:54:46;3.10;;;1.70;;
16460;SDS011;8341;42.048;24.650;2023-12-22T01:57:13;3.33;;;1.80;;
16460;SDS011;8341;42.048;24.650;2023-12-22T01:59:42;1.83;;;1.30;;
16460;SDS011;8341;42.048;24.650;2023-12-22T02:02:10;1.43;;;1.23;;
16460;SDS011;8341;42.048;24.650;2023-12-22T02:04:37;1.73;;;1.50;;
16460;SDS011;8341;42.048;24.650;2023-12-22T02:07:05;4.40;;;2.97;;
16460;SDS011;8341;42.048;24.650;2023-12-22T02:09:33;30.97;;;18.03;;
16460;SDS011;8341;42.048;24.650;2023-12-22T02:12:00;26.17;;;13.47;;
16460;SDS011;8341;42.048;24.650;2023-12-22T02:14:28;23.70;;;13.60;;
16460;SDS011;8341;42.048;24.650;2023-12-22T02:16:56;5.67;;;3.20;;
16460;SDS011;8341;42.048;24.650;2023-12-22T02:19:34;8.83;;;5.17;;
16460;SDS011;8341;42.048;24.650;2023-12-22T02:22:10;4.77;;;3.10;;
16460;SDS011;8341;42.048;24.650;2023-12-22T02:24:39;3.47;;;2.20;;
16460;SDS011;8341;42.048;24.650;2023-12-22T02:27:08;2.23;;;2.03;;
16460;SDS011;8341;42.048;24.650;2023-12-22T02:29:51;1.90;;;1.70;;
16460;SDS011;8341;42.048;24.650;2023-12-22T02:32:27;2.10;;;1.60;;
16460;SDS011;8341;42.048;24.650;2023-12-22T02:34:56;5.23;;;2.70;;
16460;SDS011;8341;42.048;24.650;2023-12-22T02:37:23;3.93;;;2.70;;
16460;SDS011;8341;42.048;24.650;2023-12-22T02:39:53;4.73;;;2.40;;
16460;SDS011;8341;42.048;24.650;2023-12-22T02:42:21;2.63;;;1.90;;
16460;SDS011;8341;42.048;24.650;2023-12-22T02:44:54;2.70;;;1.80;;
16460;SDS011;8341;42.048;24.650;2023-12-22T02:47:22;2.30;;;1.80;;
16460;SDS011;8341;42.048;24.650;2023-12-22T02:49:49;1.67;;;1.50;;
16460;SDS011;8341;42.048;24.650;2023-12-22T02:52:15;3.03;;;1.77;;
16460;SDS011;8341;42.048;24.650;2023-12-22T02:54:42;4.00;;;2.77;;
16460;SDS011;8341;42.048;24.650;2023-12-22T02:57:10;10.03;;;6.63;;
16460;SDS011;8341;42.048;24.650;2023-12-22T02:59:37;10.63;;;6.33;;
16460;SDS011;8341;42.048;24.650;2023-12-22T03:02:03;7.37;;;4.70;;
16460;SDS011;8341;42.048;24.650;2023-12-22T03:04:30;8.27;;;4.60;;
16460;SDS011;8341;42.048;24.650;2023-12-22T03:06:57;4.93;;;3.40;;
16460;SDS011;8341;42.048;24.650;2023-12-22T03:09:24;6.00;;;3.27;;
16460;SDS011;8341;42.048;24.650;2023-12-22T03:11:51;4.23;;;3.23;;
16460;SDS011;8341;42.048;24.650;2023-12-22T03:14:21;5.13;;;3.37;;
16460;SDS011;8341;42.048;24.650;2023-12-22T03:16:48;4.17;;;3.37;;
16460;SDS011;8341;42.048;24.650;2023-12-22T03:19:15;4.63;;;3.40;;
16460;SDS011;8341;42.048;24.650;2023-12-22T03:21:41;4.23;;;3.30;;
16460;SDS011;8341;42.048;24.650;2023-12-22T03:24:08;5.10;;;3.70;;
16460;SDS011;8341;42.048;24.650;2023-12-22T03:26:35;5.40;;;3.53;;
16460;SDS011;8341;42.048;24.650;2023-12-22T03:29:02;5.47;;;3.20;;
16460;SDS011;8341;42.048;24.650;2023-12-22T03:31:30;3.70;;;2.37;;
16460;SDS011;8341;42.048;24.650;2023-12-22T03:33:56;4.20;;;2.27;;
16460;SDS011;8341;42.048;24.650;2023-12-22T03:36:23;2.47;;;1.90;;
16460;SDS011;8341;42.048;24.650;2023-12-22T03:38:50;2.57;;;2.10;;
16460;SDS011;8341;42.048;24.650;2023-12-22T03:41:17;3.63;;;2.37;;
16460;SDS011;8341;42.048;24.650;2023-12-22T03:43:44;3.33;;;2.20;;
16460;SDS011;8341;42.048;24.650;2023-12-22T03:46:10;3.80;;;2.53;;
16460;SDS011;8341;42.048;24.650;2023-12-22T03:48:39;2.77;;;2.17;;
16460;SDS011;8341;42.048;24.650;2023-12-22T03:51:05;3.30;;;2.30;;
16460;SDS011;8341;42.048;24.650;2023-12-22T03:53:32;3.57;;;2.63;;
16460;SDS011;8341;42.048;24.650;2023-12-22T03:55:59;3.57;;;2.57;;
16460;SDS011;8341;42.048;24.650;2023-12-22T03:58:26;3.00;;;2.17;;
16460;SDS011;8341;42.048;24.650;2023-12-22T04:00:54;4.60;;;2.73;;
16460;SDS011;8341;42.048;24.650;2023-12-22T04:03:21;7.63;;;4.07;;
16460;SDS011;8341;42.048;24.650;2023-12-22T04:05:50;18.33;;;10.67;;
16460;SDS011;8341;42.048;24.650;2023-12-22T04:08:16;6.43;;;4.33;;
16460;SDS011;8341;42.048;24.650;2023-12-22T04:10:45;2.80;;;2.13;;
16460;SDS011;8341;42.048;24.650;2023-12-22T04:13:11;1.30;;;1.20;;
16460;SDS011;8341;42.048;24.650;2023-12-22T04:15:38;1.37;;;1.20;;
16460;SDS011;8341;42.048;24.650;2023-12-22T04:18:05;3.23;;;1.23;;
16460;SDS011;8341;42.048;24.650;2023-12-22T04:20:32;1.37;;;1.10;;
16460;SDS011;8341;42.048;24.650;2023-12-22T04:23:00;2.67;;;1.40;;
16460;SDS011;8341;42.048;24.650;2023-12-22T04:25:27;1.10;;;0.75;;
16460;SDS011;8341;42.048;24.650;2023-12-22T04:27:53;1.02;;;0.90;;
16460;SDS011;8341;42.048;24.650;2023-12-22T04:30:20;2.22;;;1.27;;
16460;SDS011;8341;42.048;24.650;2023-12-22T04:32:47;1.90;;;1.20;;
16460;SDS011;8341;42.048;24.650;2023-12-22T04:35:14;1.63;;;1.35;;
16460;SDS011;8341;42.048;24.650;2023-12-22T04:37:40;1.92;;;1.35;;
16460;SDS011;8341;42.048;24.650;2023-12-22T04:40:09;2.35;;;1.60;;
16460;SDS011;8341;42.048;24.650;2023-12-22T04:42:37;2.78;;;1.80;;
16460;SDS011;8341;42.048;24.650;2023-12-22T04:45:04;3.03;;;2.20;;
16460;SDS011;8341;42.048;24.650;2023-12-22T04:47:31;1.88;;;1.67;;
16460;SDS011;8341;42.048;24.650;2023-12-22T04:49:57;2.15;;;1.63;;
16460;SDS011;8341;42.048;24.650;2023-12-22T04:52:25;3.05;;;1.90;;
16460;SDS011;8341;42.048;24.650;2023-12-22T04:54:53;2.65;;;1.88;;
16460;SDS011;8341;42.048;24.650;2023-12-22T04:57:22;2.13;;;1.90;;
16460;SDS011;8341;42.048;24.650;2023-12-22T04:59:49;2.83;;;2.45;;
16460;SDS011;8341;42.048;24.650;2023-12-22T05:02:16;11.13;;;7.53;;
16460;SDS011;8341;42.048;24.650;2023-12-22T05:04:42;7.05;;;5.00;;
16460;SDS011;8341;42.048;24.650;2023-12-22T05:07:09;12.57;;;7.53;;
16460;SDS011;8341;42.048;24.650;2023-12-22T05:09:36;13.13;;;7.07;;
16460;SDS011;8341;42.048;24.650;2023-12-22T05:12:03;6.82;;;5.32;;
16460;SDS011;8341;42.048;24.650;2023-12-22T05:14:31;4.68;;;3.75;;
16460;SDS011;8341;42.048;24.650;2023-12-22T05:16:58;3.05;;;2.47;;
16460;SDS011;8341;42.048;24.650;2023-12-22T05:19:26;3.03;;;2.70;;
16460;SDS011;8341;42.048;24.650;2023-12-22T05:21:53;2.35;;;2.00;;
16460;SDS011;8341;42.048;24.650;2023-12-22T05:24:21;3.85;;;1.88;;
16460;SDS011;8341;42.048;24.650;2023-12-22T05:26:47;2.03;;;1.65;;
16460;SDS011;8341;42.048;24.650;2023-12-22T05:29:14;1.88;;;1.63;;
16460;SDS011;8341;42.048;24.650;2023-12-22T05:31:43;3.10;;;2.00;;
16460;SDS011;8341;42.048;24.650;2023-12-22T05:34:09;1.77;;;1.52;;
16460;SDS011;8341;42.048;24.650;2023-12-22T05:36:36;1.58;;;1.45;;
16460;SDS011;8341;42.048;24.650;2023-12-22T05:39:03;1.23;;;1.10;;
16460;SDS011;8341;42.048;24.650;2023-12-22T05:41:33;1.40;;;1.30;;
16460;SDS011;8341;42.048;24.650;2023-12-22T05:44:01;1.95;;;1.63;;
16460;SDS011;8341;42.048;24.650;2023-12-22T05:46:28;0.93;;;0.93;;
16460;SDS011;8341;42.048;24.650;2023-12-22T05:48:56;2.35;;;1.90;;
16460;SDS011;8341;42.048;24.650;2023-12-22T05:51:24;2.75;;;2.03;;
16460;SDS011;8341;42.048;24.650;2023-12-22T05:53:51;12.98;;;7.05;;
16460;SDS011;8341;42.048;24.650;2023-12-22T05:56:19;11.70;;;7.47;;
16460;SDS011;8341;42.048;24.650;2023-12-22T05:58:47;15.82;;;9.25;;
16460;SDS011;8341;42.048;24.650;2023-12-22T06:01:15;18.80;;;11.23;;
16460;SDS011;8341;42.048;24.650;2023-12-22T06:03:43;10.88;;;6.38;;
16460;SDS011;8341;42.048;24.650;2023-12-22T06:06:11;25.23;;;13.75;;
16460;SDS011;8341;42.048;24.650;2023-12-22T06:08:38;20.23;;;13.38;;
16460;SDS011;8341;42.048;24.650;2023-12-22T06:11:06;10.70;;;8.27;;
16460;SDS011;8341;42.048;24.650;2023-12-22T06:13:33;6.20;;;5.03;;
16460;SDS011;8341;42.048;24.650;2023-12-22T06:15:59;6.25;;;4.50;;
16460;SDS011;8341;42.048;24.650;2023-12-22T06:18:26;11.77;;;7.18;;
16460;SDS011;8341;42.048;24.650;2023-12-22T06:20:53;10.30;;;7.30;;
16460;SDS011;8341;42.048;24.650;2023-12-22T06:23:22;13.87;;;9.40;;
16460;SDS011;8341;42.048;24.650;2023-12-22T06:25:48;6.40;;;4.03;;
16460;SDS011;8341;42.048;24.650;2023-12-22T06:28:15;13.13;;;7.13;;
16460;SDS011;8341;42.048;24.650;2023-12-22T06:30:43;13.38;;;8.35;;
16460;SDS011;8341;42.048;24.650;2023-12-22T06:33:12;11.30;;;8.38;;
16460;SDS011;8341;42.048;24.650;2023-12-22T06:35:39;7.53;;;5.43;;
16460;SDS011;8341;42.048;24.650;2023-12-22T06:38:06;9.20;;;7.32;;
16460;SDS011;8341;42.048;24.650;2023-12-22T06:40:37;7.22;;;5.60;;
16460;SDS011;8341;42.048;24.650;2023-12-22T06:43:04;6.18;;;4.35;;
16460;SDS011;8341;42.048;24.650;2023-12-22T06:45:31;6.18;;;4.22;;
16460;SDS011;8341;42.048;24.650;2023-12-22T06:47:58;4.90;;;3.38;;
16460;SDS011;8341;42.048;24.650;2023-12-22T06:50:24;4.93;;;3.63;;
16460;SDS011;8341;42.048;24.650;2023-12-22T06:52:51;12.50;;;8.70;;
16460;SDS011;8341;42.048;24.650;2023-12-22T06:55:18;12.18;;;8.73;;
16460;SDS011;8341;42.048;24.650;2023-12-22T06:57:46;15.30;;;10.38;;
16460;SDS011;8341;42.048;24.650;2023-12-22T07:00:13;9.82;;;6.05;;
16460;SDS011;8341;42.048;24.650;2023-12-22T07:02:41;4.85;;;3.10;;
16460;SDS011;8341;42.048;24.650;2023-12-22T07:05:29;13.23;;;8.68;;
16460;SDS011;8341;42.048;24.650;2023-12-22T07:07:57;9.25;;;5.72;;
16460;SDS011;8341;42.048;24.650;2023-12-22T07:10:24;6.57;;;4.88;;
16460;SDS011;8341;42.048;24.650;2023-12-22T07:12:53;5.88;;;3.67;;
16460;SDS011;8341;42.048;24.650;2023-12-22T07:15:19;6.10;;;4.22;;
16460;SDS011;8341;42.048;24.650;2023-12-22T07:17:46;3.88;;;3.28;;
16460;SDS011;8341;42.048;24.650;2023-12-22T07:20:13;2.78;;;2.10;;
16460;SDS011;8341;42.048;24.650;2023-12-22T07:22:40;6.95;;;3.97;;
16460;SDS011;8341;42.048;24.650;2023-12-22T07:25:07;5.85;;;4.00;;
16460;SDS011;8341;42.048;24.650;2023-12-22T07:27:34;7.00;;;4.63;;
16460;SDS011;8341;42.048;24.650;2023-12-22T07:30:03;9.77;;;6.15;;
16460;SDS011;8341;42.048;24.650;2023-12-22T07:32:30;9.85;;;7.07;;
16460;SDS011;8341;42.048;24.650;2023-12-22T07:34:57;18.20;;;12.02;;
16460;SDS011;8341;42.048;24.650;2023-12-22T07:37:24;23.85;;;14.68;;
16460;SDS011;8341;42.048;24.650;2023-12-22T07:39:51;23.67;;;17.88;;
16460;SDS011;8341;42.048;24.650;2023-12-22T07:42:18;22.27;;;16.40;;
16460;SDS011;8341;42.048;24.650;2023-12-22T07:44:45;18.98;;;13.20;;
16460;SDS011;8341;42.048;24.650;2023-12-22T07:47:13;16.17;;;11.50;;
16460;SDS011;8341;42.048;24.650;2023-12-22T07:49:39;17.65;;;12.18;;
16460;SDS011;8341;42.048;24.650;2023-12-22T07:52:06;19.83;;;12.98;;
16460;SDS011;8341;42.048;24.650;2023-12-22T07:54:34;21.70;;;13.00;;
16460;SDS011;8341;42.048;24.650;2023-12-22T07:57:00;14.93;;;10.02;;
16460;SDS011;8341;42.048;24.650;2023-12-22T07:59:27;15.05;;;10.20;;
16460;SDS011;8341;42.048;24.650;2023-12-22T08:01:54;23.58;;;14.18;;
16460;SDS011;8341;42.048;24.650;2023-12-22T08:04:22;16.02;;;10.82;;
16460;SDS011;8341;42.048;24.650;2023-12-22T08:06:49;12.50;;;7.32;;
16460;SDS011;8341;42.048;24.650;2023-12-22T08:09:17;8.10;;;4.00;;
16460;SDS011;8341;42.048;24.650;2023-12-22T08:11:44;6.65;;;4.10;;
16460;SDS011;8341;42.048;24.650;2023-12-22T08:14:12;3.90;;;3.28;;
16460;SDS011;8341;42.048;24.650;2023-12-22T08:16:38;6.30;;;4.13;;
16460;SDS011;8341;42.048;24.650;2023-12-22T08:19:05;3.35;;;2.53;;
16460;SDS011;8341;42.048;24.650;2023-12-22T08:21:33;2.47;;;2.08;;
16460;SDS011;8341;42.048;24.650;2023-12-22T08:24:00;5.35;;;4.00;;
16460;SDS011;8341;42.048;24.650;2023-12-22T08:26:27;4.95;;;3.75;;
16460;SDS011;8341;42.048;24.650;2023-12-22T08:28:54;3.47;;;2.78;;
16460;SDS011;8341;42.048;24.650;2023-12-22T08:31:21;3.70;;;2.92;;
16460;SDS011;8341;42.048;24.650;2023-12-22T08:33:48;4.40;;;2.47;;
16460;SDS011;8341;42.048;24.650;2023-12-22T08:36:14;5.38;;;3.83;;
16460;SDS011;8341;42.048;24.650;2023-12-22T08:38:42;5.07;;;2.83;;
16460;SDS011;8341;42.048;24.650;2023-12-22T08:41:09;6.03;;;3.20;;
16460;SDS011;8341;42.048;24.650;2023-12-22T08:43:37;3.17;;;2.80;;
16460;SDS011;8341;42.048;24.650;2023-12-22T08:46:05;7.20;;;3.17;;
16460;SDS011;8341;42.048;24.650;2023-12-22T08:48:31;3.38;;;2.50;;
16460;SDS011;8341;42.048;24.650;2023-12-22T08:50:58;27.27;;;21.75;;
16460;SDS011;8341;42.048;24.650;2023-12-22T08:53:25;7.72;;;5.45;;
16460;SDS011;8341;42.048;24.650;2023-12-22T08:55:56;4.75;;;4.13;;
16460;SDS011;8341;42.048;24.650;2023-12-22T08:58:23;6.13;;;4.65;;
16460;SDS011;8341;42.048;24.650;2023-12-22T09:00:50;5.28;;;4.72;;
16460;SDS011;8341;42.048;24.650;2023-12-22T09:03:17;7.07;;;5.50;;
16460;SDS011;8341;42.048;24.650;2023-12-22T09:05:44;9.00;;;5.93;;
16460;SDS011;8341;42.048;24.650;2023-12-22T09:08:12;13.55;;;7.63;;
16460;SDS011;8341;42.048;24.650;2023-12-22T09:10:38;9.18;;;6.45;;
16460;SDS011;8341;42.048;24.650;2023-12-22T09:13:07;56.35;;;30.17;;
16460;SDS011;8341;42.048;24.650;2023-12-22T09:15:34;15.45;;;9.50;;
16460;SDS011;8341;42.048;24.650;2023-12-22T09:18:01;16.02;;;8.95;;
16460;SDS011;8341;42.048;24.650;2023-12-22T09:20:28;13.13;;;9.02;;
16460;SDS011;8341;42.048;24.650;2023-12-22T09:22:55;10.05;;;6.78;;
16460;SDS011;8341;42.048;24.650;2023-12-22T09:25:23;10.43;;;7.50;;
16460;SDS011;8341;42.048;24.650;2023-12-22T09:27:52;7.07;;;5.25;;
16460;SDS011;8341;42.048;24.650;2023-12-22T09:30:20;7.70;;;5.13;;
16460;SDS011;8341;42.048;24.650;2023-12-22T09:32:47;8.05;;;5.90;;
16460;SDS011;8341;42.048;24.650;2023-12-22T09:35:14;4.35;;;3.83;;
16460;SDS011;8341;42.048;24.650;2023-12-22T09:37:41;5.55;;;3.83;;
16460;SDS011;8341;42.048;24.650;2023-12-22T09:40:08;3.95;;;3.35;;
16460;SDS011;8341;42.048;24.650;2023-12-22T09:42:37;4.88;;;3.95;;
16460;SDS011;8341;42.048;24.650;2023-12-22T09:45:06;5.82;;;4.53;;
16460;SDS011;8341;42.048;24.650;2023-12-22T09:47:38;4.70;;;3.55;;
16460;SDS011;8341;42.048;24.650;2023-12-22T09:50:07;7.35;;;5.68;;
16460;SDS011;8341;42.048;24.650;2023-12-22T09:52:35;4.55;;;3.65;;
16460;SDS011;8341;42.048;24.650;2023-12-22T09:55:02;3.85;;;2.85;;
16460;SDS011;8341;42.048;24.650;2023-12-22T09:57:31;2.47;;;2.22;;
16460;SDS011;8341;42.048;24.650;2023-12-22T09:59:59;2.63;;;2.42;;
16460;SDS011;8341;42.048;24.650;2023-12-22T10:02:31;1.30;;;1.20;;
16460;SDS011;8341;42.048;24.650;2023-12-22T10:05:01;4.13;;;2.03;;
16460;SDS011;8341;42.048;24.650;2023-12-22T10:07:28;1.88;;;1.70;;
16460;SDS011;8341;42.048;24.650;2023-12-22T10:09:58;2.90;;;2.58;;
16460;SDS011;8341;42.048;24.650;2023-12-22T10:12:26;2.28;;;1.50;;
16460;SDS011;8341;42.048;24.650;2023-12-22T10:14:54;2.13;;;1.70;;
16460;SDS011;8341;42.048;24.650;2023-12-22T10:17:22;3.45;;;2.40;;
16460;SDS011;8341;42.048;24.650;2023-12-22T10:19:49;3.53;;;2.63;;
16460;SDS011;8341;42.048;24.650;2023-12-22T10:22:17;2.75;;;2.53;;
16460;SDS011;8341;42.048;24.650;2023-12-22T10:24:46;2.85;;;2.15;;
16460;SDS011;8341;42.048;24.650;2023-12-22T10:27:16;3.13;;;2.85;;
16460;SDS011;8341;42.048;24.650;2023-12-22T10:29:47;2.53;;;2.05;;
16460;SDS011;8341;42.048;24.650;2023-12-22T10:32:14;3.05;;;2.75;;
16460;SDS011;8341;42.048;24.650;2023-12-22T10:34:41;2.50;;;2.30;;
16460;SDS011;8341;42.048;24.650;2023-12-22T10:37:08;2.40;;;2.10;;
16460;SDS011;8341;42.048;24.650;2023-12-22T10:39:39;2.35;;;2.05;;
16460;SDS011;8341;42.048;24.650;2023-12-22T10:42:06;2.88;;;2.67;;
16460;SDS011;8341;42.048;24.650;2023-12-22T10:44:33;3.15;;;2.85;;
16460;SDS011;8341;42.048;24.650;2023-12-22T10:47:00;5.07;;;3.13;;
16460;SDS011;8341;42.048;24.650;2023-12-22T10:49:28;3.88;;;2.90;;
16460;SDS011;8341;42.048;24.650;2023-12-22T10:51:54;3.13;;;2.60;;
16460;SDS011;8341;42.048;24.650;2023-12-22T10:54:21;2.35;;;2.15;;
16460;SDS011;8341;42.048;24.650;2023-12-22T10:56:50;3.45;;;2.90;;
16460;SDS011;8341;42.048;24.650;2023-12-22T10:59:18;3.17;;;2.20;;
16460;SDS011;8341;42.048;24.650;2023-12-22T11:01:48;3.35;;;2.38;;
16460;SDS011;8341;42.048;24.650;2023-12-22T11:04:20;2.38;;;2.17;;
16460;SDS011;8341;42.048;24.650;2023-12-22T11:06:49;2.92;;;2.50;;
16460;SDS011;8341;42.048;24.650;2023-12-22T11:09:17;7.43;;;4.88;;
16460;SDS011;8341;42.048;24.650;2023-12-22T11:11:47;5.72;;;4.10;;
16460;SDS011;8341;42.048;24.650;2023-12-22T11:14:17;8.23;;;5.63;;
16460;SDS011;8341;42.048;24.650;2023-12-22T11:16:46;3.22;;;2.75;;
16460;SDS011;8341;42.048;24.650;2023-12-22T11:19:14;2.38;;;2.17;;
16460;SDS011;8341;42.048;24.650;2023-12-22T11:21:41;1.80;;;1.70;;
16460;SDS011;8341;42.048;24.650;2023-12-22T11:24:09;3.10;;;2.67;;
16460;SDS011;8341;42.048;24.650;2023-12-22T11:26:39;1.40;;;1.17;;
16460;SDS011;8341;42.048;24.650;2023-12-22T11:29:10;0.88;;;0.88;;
16460;SDS011;8341;42.048;24.650;2023-12-22T11:31:37;1.83;;;1.70;;
16460;SDS011;8341;42.048;24.650;2023-12-22T11:34:06;1.70;;;1.60;;
16460;SDS011;8341;42.048;24.650;2023-12-22T11:36:34;0.88;;;0.88;;
16460;SDS011;8341;42.048;24.650;2023-12-22T11:39:02;1.60;;;1.05;;
16460;SDS011;8341;42.048;24.650;2023-12-22T11:41:30;1.40;;;1.30;;
16460;SDS011;8341;42.048;24.650;2023-12-22T11:44:00;1.50;;;1.20;;
16460;SDS011;8341;42.048;24.650;2023-12-22T11:46:31;1.67;;;1.17;;
16460;SDS011;8341;42.048;24.650;2023-12-22T11:48:59;2.67;;;1.58;;
16460;SDS011;8341;42.048;24.650;2023-12-22T11:51:30;1.48;;;1.15;;
16460;SDS011;8341;42.048;24.650;2023-12-22T11:53:59;1.33;;;1.10;;
16460;SDS011;8341;42.048;24.650;2023-12-22T11:56:26;2.55;;;1.55;;
16460;SDS011;8341;42.048;24.650;2023-12-22T11:58:54;3.00;;;2.00;;
16460;SDS011;8341;42.048;24.650;2023-12-22T12:01:24;3.00;;;1.85;;
16460;SDS011;8341;42.048;24.650;2023-12-22T12:03:56;3.55;;;2.42;;
16460;SDS011;8341;42.048;24.650;2023-12-22T12:06:31;6.57;;;3.67;;
16460;SDS011;8341;42.048;24.650;2023-12-22T12:09:03;5.07;;;3.33;;
16460;SDS011;8341;42.048;24.650;2023-12-22T12:14:43;2.17;;;1.60;;
16460;SDS011;8341;42.048;24.650;2023-12-22T12:17:10;1.23;;;1.13;;
16460;SDS011;8341;42.048;24.650;2023-12-22T12:19:38;2.38;;;1.70;;
16460;SDS011;8341;42.048;24.650;2023-12-22T12:22:07;3.20;;;1.88;;
16460;SDS011;8341;42.048;24.650;2023-12-22T12:24:34;1.30;;;1.20;;
16460;SDS011;8341;42.048;24.650;2023-12-22T12:27:02;0.65;;;0.65;;
16460;SDS011;8341;42.048;24.650;2023-12-22T12:29:30;0.70;;;0.70;;
16460;SDS011;8341;42.048;24.650;2023-12-22T12:32:02;1.20;;;1.10;;
16460;SDS011;8341;42.048;24.650;2023-12-22T12:34:30;1.60;;;1.50;;
16460;SDS011;8341;42.048;24.650;2023-12-22T12:36:59;1.13;;;1.05;;
16460;SDS011;8341;42.048;24.650;2023-12-22T12:39:29;1.42;;;1.27;;
16460;SDS011;8341;42.048;24.650;2023-12-22T12:41:57;2.33;;;1.60;;
16460;SDS011;8341;42.048;24.650;2023-12-22T12:44:27;2.92;;;2.17;;
16460;SDS011;8341;42.048;24.650;2023-12-22T12:46:57;1.52;;;1.42;;
16460;SDS011;8341;42.048;24.650;2023-12-22T12:49:25;2.42;;;2.05;;
16460;SDS011;8341;42.048;24.650;2023-12-22T12:51:54;1.70;;;1.60;;
16460;SDS011;8341;42.048;24.650;2023-12-22T12:54:23;2.17;;;1.65;;
16460;SDS011;8341;42.048;24.650;2023-12-22T12:56:49;1.27;;;1.20;;
16460;SDS011;8341;42.048;24.650;2023-12-22T12:59:17;2.40;;;1.60;;
16460;SDS011;8341;42.048;24.650;2023-12-22T13:01:45;4.35;;;3.28;;
16460;SDS011;8341;42.048;24.650;2023-12-22T13:04:12;1.80;;;1.70;;
16460;SDS011;8341;42.048;24.650;2023-12-22T13:06:43;1.95;;;1.50;;
16460;SDS011;8341;42.048;24.650;2023-12-22T13:09:10;1.45;;;1.35;;
16460;SDS011;8341;42.048;24.650;2023-12-22T13:11:39;1.27;;;1.23;;
16460;SDS011;8341;42.048;24.650;2023-12-22T13:14:07;1.92;;;1.77;;
16460;SDS011;8341;42.048;24.650;2023-12-22T13:16:34;1.58;;;1.48;;
16460;SDS011;8341;42.048;24.650;2023-12-22T13:19:02;1.80;;;1.67;;
16460;SDS011;8341;42.048;24.650;2023-12-22T13:21:29;2.15;;;1.95;;
16460;SDS011;8341;42.048;24.650;2023-12-22T13:24:09;2.30;;;1.92;;
16460;SDS011;8341;42.048;24.650;2023-12-22T13:26:37;2.10;;;1.85;;
16460;SDS011;8341;42.048;24.650;2023-12-22T13:29:05;2.40;;;2.20;;
16460;SDS011;8341;42.048;24.650;2023-12-22T13:31:32;5.25;;;3.00;;
16460;SDS011;8341;42.048;24.650;2023-12-22T13:33:59;4.72;;;2.97;;
16460;SDS011;8341;42.048;24.650;2023-12-22T13:36:26;2.63;;;2.42;;
16460;SDS011;8341;42.048;24.650;2023-12-22T13:38:53;4.00;;;3.08;;
16460;SDS011;8341;42.048;24.650;2023-12-22T13:41:20;3.45;;;2.63;;
16460;SDS011;8341;42.048;24.650;2023-12-22T13:43:47;3.80;;;3.08;;
16460;SDS011;8341;42.048;24.650;2023-12-22T13:46:15;3.03;;;2.75;;
16460;SDS011;8341;42.048;24.650;2023-12-22T13:48:43;5.18;;;3.13;;
16460;SDS011;8341;42.048;24.650;2023-12-22T13:51:10;4.18;;;3.40;;
16460;SDS011;8341;42.048;24.650;2023-12-22T13:53:46;3.50;;;2.53;;
16460;SDS011;8341;42.048;24.650;2023-12-22T13:56:13;2.28;;;2.08;;
16460;SDS011;8341;42.048;24.650;2023-12-22T13:58:43;2.63;;;1.80;;
16460;SDS011;8341;42.048;24.650;2023-12-22T14:01:12;3.45;;;2.55;;
16460;SDS011;8341;42.048;24.650;2023-12-22T14:03:41;2.35;;;2.10;;
16460;SDS011;8341;42.048;24.650;2023-12-22T14:06:09;2.33;;;2.08;;
16460;SDS011;8341;42.048;24.650;2023-12-22T14:08:38;2.70;;;2.22;;
16460;SDS011;8341;42.048;24.650;2023-12-22T14:11:06;2.90;;;2.33;;
16460;SDS011;8341;42.048;24.650;2023-12-22T14:13:32;4.30;;;2.55;;
16460;SDS011;8341;42.048;24.650;2023-12-22T14:16:03;2.78;;;2.30;;
16460;SDS011;8341;42.048;24.650;2023-12-22T14:18:34;5.68;;;2.80;;
16460;SDS011;8341;42.048;24.650;2023-12-22T14:21:02;2.85;;;2.55;;
16460;SDS011;8341;42.048;24.650;2023-12-22T14:23:32;5.50;;;4.18;;
16460;SDS011;8341;42.048;24.650;2023-12-22T14:25:59;40.80;;;25.05;;
16460;SDS011;8341;42.048;24.650;2023-12-22T14:28:25;3.00;;;2.60;;
16460;SDS011;8341;42.048;24.650;2023-12-22T14:30:52;3.42;;;3.00;;
16460;SDS011;8341;42.048;24.650;2023-12-22T14:33:19;3.65;;;2.72;;
16460;SDS011;8341;42.048;24.650;2023-12-22T14:35:46;3.08;;;2.88;;
16460;SDS011;8341;42.048;24.650;2023-12-22T14:38:15;3.38;;;2.97;;
16460;SDS011;8341;42.048;24.650;2023-12-22T14:40:42;3.35;;;2.88;;
16460;SDS011;8341;42.048;24.650;2023-12-22T14:43:08;4.30;;;3.55;;
16460;SDS011;8341;42.048;24.650;2023-12-22T14:45:35;3.13;;;2.40;;
16460;SDS011;8341;42.048;24.650;2023-12-22T14:48:02;3.08;;;2.40;;
16460;SDS011;8341;42.048;24.650;2023-12-22T14:50:30;3.97;;;2.35;;
16460;SDS011;8341;42.048;24.650;2023-12-22T14:52:56;2.53;;;2.20;;